sensor_id;sensor_type;location;lat;lon;timestamp;pressure;altitude;pressure_sealevel;temperature;humidity
11712;BME280;5912;51.034;6.984;2023-04-01T00:01:54;56464.50;;;-142.13;63.23
11712;BME280;5912;51.034;6.984;2023-04-01T00:04:19;56448.47;;;-142.13;63.26
11712;BME280;5912;51.034;6.984;2023-04-01T00:06:45;56490.53;;;-142.13;63.15
11712;BME280;5912;51.034;6.984;2023-04-01T00:09:12;56480.53;;;-142.13;62.64
11712;BME280;5912;51.034;6.984;2023-04-01T00:11:38;56490.53;;;-142.13;62.35
11712;BME280;5912;51.034;6.984;2023-04-01T00:14:04;56458.50;;;-142.13;61.89
11712;BME280;5912;51.034;6.984;2023-04-01T00:16:29;56458.50;;;-142.13;61.99
11712;BME280;5912;51.034;6.984;2023-04-01T00:18:55;56482.53;;;-142.13;62.26
11712;BME280;5912;51.034;6.984;2023-04-01T00:21:21;56480.53;;;-142.13;61.78
11712;BME280;5912;51.034;6.984;2023-04-01T00:23:47;56454.47;;;-142.13;62.07
11712;BME280;5912;51.034;6.984;2023-04-01T00:26:13;56452.47;;;-142.13;61.95
11712;BME280;5912;51.034;6.984;2023-04-01T00:28:40;56432.44;;;-142.13;61.88
11712;BME280;5912;51.034;6.984;2023-04-01T00:31:08;56460.50;;;-142.13;61.80
11712;BME280;5912;51.034;6.984;2023-04-01T00:33:34;56456.50;;;-142.13;62.02
11712;BME280;5912;51.034;6.984;2023-04-01T00:36:14;56432.44;;;-142.13;62.45
11712;BME280;5912;51.034;6.984;2023-04-01T00:38:40;56446.47;;;-142.13;61.80
11712;BME280;5912;51.034;6.984;2023-04-01T00:41:08;56492.53;;;-142.13;61.82
11712;BME280;5912;51.034;6.984;2023-04-01T00:43:34;56456.50;;;-142.13;61.94
11712;BME280;5912;51.034;6.984;2023-04-01T00:45:59;56494.56;;;-142.13;61.60
11712;BME280;5912;51.034;6.984;2023-04-01T00:48:33;56448.47;;;-142.13;61.70
11712;BME280;5912;51.034;6.984;2023-04-01T00:51:10;56456.50;;;-142.13;61.48
11712;BME280;5912;51.034;6.984;2023-04-01T00:53:41;56472.50;;;-142.13;61.46
11712;BME280;5912;51.034;6.984;2023-04-01T00:56:14;56448.47;;;-142.13;61.36
11712;BME280;5912;51.034;6.984;2023-04-01T00:58:45;56460.50;;;-142.13;61.54
11712;BME280;5912;51.034;6.984;2023-04-01T01:01:11;56482.53;;;-142.13;61.56
11712;BME280;5912;51.034;6.984;2023-04-01T01:03:37;56458.50;;;-142.13;61.76
11712;BME280;5912;51.034;6.984;2023-04-01T01:11:17;56476.53;;;-142.13;61.74
11712;BME280;5912;51.034;6.984;2023-04-01T01:14:01;56468.50;;;-142.13;62.76
11712;BME280;5912;51.034;6.984;2023-04-01T01:16:36;56458.50;;;-142.13;62.96
11712;BME280;5912;51.034;6.984;2023-04-01T01:19:48;56496.56;;;-142.13;63.48
11712;BME280;5912;51.034;6.984;2023-04-01T01:25:09;56464.50;;;-142.13;63.58
11712;BME280;5912;51.034;6.984;2023-04-01T01:27:40;56520.59;;;-142.13;63.51
11712;BME280;5912;51.034;6.984;2023-04-01T01:35:35;56486.53;;;-142.13;63.95
11712;BME280;5912;51.034;6.984;2023-04-01T01:38:09;56468.50;;;-142.13;63.64
11712;BME280;5912;51.034;6.984;2023-04-01T01:40:36;56476.53;;;-142.13;63.73
11712;BME280;5912;51.034;6.984;2023-04-01T01:43:08;56460.50;;;-142.13;63.58
11712;BME280;5912;51.034;6.984;2023-04-01T01:45:37;56486.53;;;-142.13;63.29
11712;BME280;5912;51.034;6.984;2023-04-01T01:48:07;56486.53;;;-142.13;63.72
11712;BME280;5912;51.034;6.984;2023-04-01T01:50:34;56458.50;;;-142.13;63.72
11712;BME280;5912;51.034;6.984;2023-04-01T01:53:05;56452.47;;;-142.13;63.89
11712;BME280;5912;51.034;6.984;2023-04-01T01:55:36;56452.47;;;-142.13;64.37
11712;BME280;5912;51.034;6.984;2023-04-01T02:00:42;56464.50;;;-142.13;65.13
11712;BME280;5912;51.034;6.984;2023-04-01T02:03:08;56474.53;;;-142.13;65.39
11712;BME280;5912;51.034;6.984;2023-04-01T02:05:35;56462.50;;;-142.13;65.79
11712;BME280;5912;51.034;6.984;2023-04-01T02:08:07;56510.56;;;-142.13;66.37
11712;BME280;5912;51.034;6.984;2023-04-01T02:10:37;56490.53;;;-142.13;66.36
11712;BME280;5912;51.034;6.984;2023-04-01T02:13:09;56488.53;;;-142.13;67.07
11712;BME280;5912;51.034;6.984;2023-04-01T02:15:44;56464.50;;;-142.13;67.11
11712;BME280;5912;51.034;6.984;2023-04-01T02:18:13;56476.53;;;-142.13;67.25
11712;BME280;5912;51.034;6.984;2023-04-01T02:20:40;56468.50;;;-142.13;67.65
11712;BME280;5912;51.034;6.984;2023-04-01T02:23:07;56492.53;;;-142.13;67.50
11712;BME280;5912;51.034;6.984;2023-04-01T02:25:35;56474.53;;;-142.13;68.09
11712;BME280;5912;51.034;6.984;2023-04-01T02:28:02;56484.53;;;-142.13;68.17
11712;BME280;5912;51.034;6.984;2023-04-01T02:30:29;56484.53;;;-142.13;68.23
11712;BME280;5912;51.034;6.984;2023-04-01T02:32:57;56490.53;;;-142.13;68.65
11712;BME280;5912;51.034;6.984;2023-04-01T02:35:24;56520.59;;;-142.13;68.81
11712;BME280;5912;51.034;6.984;2023-04-01T02:37:52;56444.47;;;-142.13;68.89
11712;BME280;5912;51.034;6.984;2023-04-01T02:40:19;56474.53;;;-142.13;69.33
11712;BME280;5912;51.034;6.984;2023-04-01T02:42:44;56494.56;;;-142.13;69.61
11712;BME280;5912;51.034;6.984;2023-04-01T02:45:11;56692.88;;;-142.13;70.02
11712;BME280;5912;51.034;6.984;2023-04-01T02:47:37;56478.53;;;-142.13;69.96
11712;BME280;5912;51.034;6.984;2023-04-01T02:50:02;56482.53;;;-142.13;70.34
11712;BME280;5912;51.034;6.984;2023-04-01T02:52:29;56504.56;;;-142.13;70.77
11712;BME280;5912;51.034;6.984;2023-04-01T02:54:55;56500.56;;;-142.13;71.14
11712;BME280;5912;51.034;6.984;2023-04-01T02:57:20;56482.53;;;-142.13;71.06
11712;BME280;5912;51.034;6.984;2023-04-01T02:59:46;56500.56;;;-142.13;71.64
11712;BME280;5912;51.034;6.984;2023-04-01T03:02:12;56492.53;;;-142.13;71.54
11712;BME280;5912;51.034;6.984;2023-04-01T03:04:38;56528.59;;;-142.13;71.17
11712;BME280;5912;51.034;6.984;2023-04-01T03:07:03;56504.56;;;-142.13;71.56
11712;BME280;5912;51.034;6.984;2023-04-01T03:09:28;56496.56;;;-142.13;71.71
11712;BME280;5912;51.034;6.984;2023-04-01T03:11:54;56512.59;;;-142.13;71.35
11712;BME280;5912;51.034;6.984;2023-04-01T03:14:20;56512.59;;;-142.13;71.14
11712;BME280;5912;51.034;6.984;2023-04-01T03:16:45;56506.56;;;-142.13;71.19
11712;BME280;5912;51.034;6.984;2023-04-01T03:19:10;56492.53;;;-142.13;71.38
11712;BME280;5912;51.034;6.984;2023-04-01T03:21:36;56500.56;;;-142.13;71.12
11712;BME280;5912;51.034;6.984;2023-04-01T03:24:01;56508.56;;;-142.13;71.23
11712;BME280;5912;51.034;6.984;2023-04-01T03:26:27;56496.56;;;-142.13;72.26
11712;BME280;5912;51.034;6.984;2023-04-01T03:28:53;56550.63;;;-142.13;71.38
11712;BME280;5912;51.034;6.984;2023-04-01T03:31:19;56506.56;;;-142.13;71.04
11712;BME280;5912;51.034;6.984;2023-04-01T03:33:44;56488.53;;;-142.13;70.89
11712;BME280;5912;51.034;6.984;2023-04-01T03:36:10;56500.56;;;-142.13;70.79
11712;BME280;5912;51.034;6.984;2023-04-01T03:38:37;56514.59;;;-142.13;70.88
11712;BME280;5912;51.034;6.984;2023-04-01T03:41:03;56500.56;;;-142.13;71.06
11712;BME280;5912;51.034;6.984;2023-04-01T03:43:28;56496.56;;;-142.13;71.02
11712;BME280;5912;51.034;6.984;2023-04-01T03:45:54;56526.59;;;-142.13;70.92
11712;BME280;5912;51.034;6.984;2023-04-01T03:48:20;56488.53;;;-142.13;71.00
11712;BME280;5912;51.034;6.984;2023-04-01T03:50:46;56486.53;;;-142.13;70.86
11712;BME280;5912;51.034;6.984;2023-04-01T03:53:11;56498.56;;;-142.13;71.00
11712;BME280;5912;51.034;6.984;2023-04-01T03:55:37;56482.53;;;-142.13;71.00
11712;BME280;5912;51.034;6.984;2023-04-01T03:58:03;56522.59;;;-142.13;71.25
11712;BME280;5912;51.034;6.984;2023-04-01T04:00:29;56542.63;;;-142.13;71.46
11712;BME280;5912;51.034;6.984;2023-04-01T04:02:55;56502.56;;;-142.13;71.63
11712;BME280;5912;51.034;6.984;2023-04-01T04:05:22;56518.59;;;-142.13;71.84
11712;BME280;5912;51.034;6.984;2023-04-01T04:07:48;56506.56;;;-142.13;72.45
11712;BME280;5912;51.034;6.984;2023-04-01T04:10:13;56484.53;;;-142.13;72.80
11712;BME280;5912;51.034;6.984;2023-04-01T04:12:38;56492.53;;;-142.13;73.00
11712;BME280;5912;51.034;6.984;2023-04-01T04:15:05;56486.53;;;-142.13;72.72
11712;BME280;5912;51.034;6.984;2023-04-01T04:17:31;56510.56;;;-142.13;72.38
11712;BME280;5912;51.034;6.984;2023-04-01T04:19:56;56524.59;;;-142.13;72.59
11712;BME280;5912;51.034;6.984;2023-04-01T04:22:21;56520.59;;;-142.13;72.70
11712;BME280;5912;51.034;6.984;2023-04-01T04:24:47;56518.59;;;-142.13;72.93
11712;BME280;5912;51.034;6.984;2023-04-01T04:27:12;56480.53;;;-142.13;72.93
11712;BME280;5912;51.034;6.984;2023-04-01T04:29:37;56526.59;;;-142.13;73.16
11712;BME280;5912;51.034;6.984;2023-04-01T04:32:02;56520.59;;;-142.13;72.89
11712;BME280;5912;51.034;6.984;2023-04-01T04:34:28;56478.53;;;-142.13;73.55
11712;BME280;5912;51.034;6.984;2023-04-01T04:36:53;56696.88;;;-142.13;73.22
11712;BME280;5912;51.034;6.984;2023-04-01T04:39:18;56500.56;;;-142.13;73.15
11712;BME280;5912;51.034;6.984;2023-04-01T04:41:44;56496.56;;;-142.13;73.13
11712;BME280;5912;51.034;6.984;2023-04-01T04:44:09;56504.56;;;-142.13;73.36
11712;BME280;5912;51.034;6.984;2023-04-01T04:46:34;56522.59;;;-142.13;73.45
11712;BME280;5912;51.034;6.984;2023-04-01T04:49:01;56480.53;;;-142.13;73.42
11712;BME280;5912;51.034;6.984;2023-04-01T04:51:26;56496.56;;;-142.13;73.57
11712;BME280;5912;51.034;6.984;2023-04-01T04:53:51;56540.63;;;-142.13;73.59
11712;BME280;5912;51.034;6.984;2023-04-01T04:56:18;56472.50;;;-142.13;73.88
11712;BME280;5912;51.034;6.984;2023-04-01T04:58:45;56530.59;;;-142.13;74.02
11712;BME280;5912;51.034;6.984;2023-04-01T05:01:12;56502.56;;;-142.13;74.13
11712;BME280;5912;51.034;6.984;2023-04-01T05:03:38;56512.59;;;-142.13;74.11
11712;BME280;5912;51.034;6.984;2023-04-01T05:06:04;56532.63;;;-142.13;74.13
11712;BME280;5912;51.034;6.984;2023-04-01T05:08:30;56516.59;;;-142.13;74.04
11712;BME280;5912;51.034;6.984;2023-04-01T05:10:55;56504.56;;;-142.13;73.91
11712;BME280;5912;51.034;6.984;2023-04-01T05:13:20;56508.56;;;-142.13;74.43
11712;BME280;5912;51.034;6.984;2023-04-01T05:15:46;56480.53;;;-142.13;74.83
11712;BME280;5912;51.034;6.984;2023-04-01T05:18:11;56536.63;;;-142.13;74.90
11712;BME280;5912;51.034;6.984;2023-04-01T05:20:36;56528.59;;;-142.13;74.85
11712;BME280;5912;51.034;6.984;2023-04-01T05:23:02;56496.56;;;-142.13;75.14
11712;BME280;5912;51.034;6.984;2023-04-01T05:25:27;56504.56;;;-142.13;74.84
11712;BME280;5912;51.034;6.984;2023-04-01T05:28:08;56490.53;;;-142.13;75.08
11712;BME280;5912;51.034;6.984;2023-04-01T05:30:34;56506.56;;;-142.13;75.42
11712;BME280;5912;51.034;6.984;2023-04-01T05:32:59;56496.56;;;-142.13;75.15
11712;BME280;5912;51.034;6.984;2023-04-01T05:35:25;56496.56;;;-142.13;75.48
11712;BME280;5912;51.034;6.984;2023-04-01T05:37:50;56546.63;;;-142.13;75.53
11712;BME280;5912;51.034;6.984;2023-04-01T05:40:16;56514.59;;;-142.13;75.56
11712;BME280;5912;51.034;6.984;2023-04-01T05:42:41;56506.56;;;-142.13;75.76
11712;BME280;5912;51.034;6.984;2023-04-01T05:45:07;56524.59;;;-142.13;76.15
11712;BME280;5912;51.034;6.984;2023-04-01T05:47:33;56504.56;;;-142.13;75.99
11712;BME280;5912;51.034;6.984;2023-04-01T05:49:58;56516.59;;;-142.13;75.77
11712;BME280;5912;51.034;6.984;2023-04-01T05:52:24;56504.56;;;-142.13;76.03
11712;BME280;5912;51.034;6.984;2023-04-01T05:58:11;56524.59;;;-142.13;76.13
11712;BME280;5912;51.034;6.984;2023-04-01T06:00:36;56530.59;;;-142.13;76.22
11712;BME280;5912;51.034;6.984;2023-04-01T06:03:02;56528.59;;;-142.13;76.11
11712;BME280;5912;51.034;6.984;2023-04-01T06:05:29;56510.56;;;-142.13;76.08
11712;BME280;5912;51.034;6.984;2023-04-01T06:07:58;56500.56;;;-142.13;76.32
11712;BME280;5912;51.034;6.984;2023-04-01T06:10:49;56504.56;;;-142.13;76.67
11712;BME280;5912;51.034;6.984;2023-04-01T06:16:21;56506.56;;;-142.13;76.55
11712;BME280;5912;51.034;6.984;2023-04-01T06:19:36;56468.50;;;-142.13;76.53
11712;BME280;5912;51.034;6.984;2023-04-01T06:22:04;56510.56;;;-142.13;76.42
11712;BME280;5912;51.034;6.984;2023-04-01T06:43:28;56516.59;;;-142.13;75.88
11712;BME280;5912;51.034;6.984;2023-04-01T06:46:21;56496.56;;;-142.13;75.83
11712;BME280;5912;51.034;6.984;2023-04-01T06:54:18;56484.53;;;-142.13;75.50
11712;BME280;5912;51.034;6.984;2023-04-01T06:56:48;56538.63;;;-142.13;75.83
11712;BME280;5912;51.034;6.984;2023-04-01T06:59:17;56480.53;;;-142.13;75.60
11712;BME280;5912;51.034;6.984;2023-04-01T07:02:06;56524.59;;;-142.13;75.30
11712;BME280;5912;51.034;6.984;2023-04-01T07:04:44;56512.59;;;-142.13;75.16
11712;BME280;5912;51.034;6.984;2023-04-01T07:07:21;56488.53;;;-142.13;75.36
11712;BME280;5912;51.034;6.984;2023-04-01T07:09:51;56506.56;;;-142.13;75.13
11712;BME280;5912;51.034;6.984;2023-04-01T07:15:02;56504.56;;;-142.13;75.05
11712;BME280;5912;51.034;6.984;2023-04-01T07:17:32;56490.53;;;-142.13;74.98
11712;BME280;5912;51.034;6.984;2023-04-01T07:23:25;56502.56;;;-142.13;75.50
11712;BME280;5912;51.034;6.984;2023-04-01T07:25:55;56484.53;;;-142.13;75.54
11712;BME280;5912;51.034;6.984;2023-04-01T07:28:23;56492.53;;;-142.13;75.70
11712;BME280;5912;51.034;6.984;2023-04-01T07:33:35;56480.53;;;-142.13;75.45
11712;BME280;5912;51.034;6.984;2023-04-01T07:36:13;56488.53;;;-142.13;75.37
11712;BME280;5912;51.034;6.984;2023-04-01T07:41:32;56496.56;;;-142.13;75.36
11712;BME280;5912;51.034;6.984;2023-04-01T07:46:57;56524.59;;;-142.13;75.34
11712;BME280;5912;51.034;6.984;2023-04-01T07:49:31;56484.53;;;-142.13;75.43
11712;BME280;5912;51.034;6.984;2023-04-01T07:52:12;56492.53;;;-142.13;75.18
11712;BME280;5912;51.034;6.984;2023-04-01T07:54:49;56484.53;;;-142.13;75.27
11712;BME280;5912;51.034;6.984;2023-04-01T07:57:27;56494.56;;;-142.13;75.13
11712;BME280;5912;51.034;6.984;2023-04-01T08:05:40;56472.50;;;-142.13;73.80
11712;BME280;5912;51.034;6.984;2023-04-01T08:08:18;56478.53;;;-142.13;74.20
11712;BME280;5912;51.034;6.984;2023-04-01T08:11:53;56472.50;;;-142.13;74.55
11712;BME280;5912;51.034;6.984;2023-04-01T08:16:37;56448.47;;;-142.13;74.12
11712;BME280;5912;51.034;6.984;2023-04-01T08:22:21;56472.50;;;-142.13;74.39
11712;BME280;5912;51.034;6.984;2023-04-01T08:24:49;56512.59;;;-142.13;74.15
11712;BME280;5912;51.034;6.984;2023-04-01T08:27:24;56466.50;;;-142.13;74.46
11712;BME280;5912;51.034;6.984;2023-04-01T08:32:32;56452.47;;;-142.13;74.60
11712;BME280;5912;51.034;6.984;2023-04-01T08:35:12;56510.56;;;-142.13;74.90
11712;BME280;5912;51.034;6.984;2023-04-01T08:37:41;56486.53;;;-142.13;74.88
11712;BME280;5912;51.034;6.984;2023-04-01T08:40:35;56498.56;;;-142.13;74.94
11712;BME280;5912;51.034;6.984;2023-04-01T08:57:54;56468.50;;;-142.13;74.13
11712;BME280;5912;51.034;6.984;2023-04-01T09:00:46;56476.53;;;-142.13;74.38
11712;BME280;5912;51.034;6.984;2023-04-01T09:14:06;56482.53;;;-142.13;73.16
11712;BME280;5912;51.034;6.984;2023-04-01T09:19:22;56462.50;;;-142.13;73.25
11712;BME280;5912;51.034;6.984;2023-04-01T09:24:42;56484.53;;;-142.13;72.87
11712;BME280;5912;51.034;6.984;2023-04-01T09:27:27;56454.47;;;-142.13;72.77
11712;BME280;5912;51.034;6.984;2023-04-01T09:30:28;56492.53;;;-142.13;72.88
11712;BME280;5912;51.034;6.984;2023-04-01T09:44:58;56458.50;;;-142.13;71.54
11712;BME280;5912;51.034;6.984;2023-04-01T10:18:11;56482.53;;;-142.13;72.99
11712;BME280;5912;51.034;6.984;2023-04-01T10:20:58;56472.50;;;-142.13;72.52
11712;BME280;5912;51.034;6.984;2023-04-01T10:32:16;56728.94;;;-142.13;71.79
11712;BME280;5912;51.034;6.984;2023-04-01T10:35:14;56454.47;;;-142.13;72.06
11712;BME280;5912;51.034;6.984;2023-04-01T11:04:25;56488.53;;;-142.13;72.00
11712;BME280;5912;51.034;6.984;2023-04-01T11:14:58;56456.50;;;-142.13;71.09
11712;BME280;5912;51.034;6.984;2023-04-01T11:28:55;56450.47;;;-142.13;71.63
11712;BME280;5912;51.034;6.984;2023-04-01T11:43:10;56430.44;;;-142.13;70.59
11712;BME280;5912;51.034;6.984;2023-04-01T11:45:45;56474.53;;;-142.13;69.76
11712;BME280;5912;51.034;6.984;2023-04-01T11:57:01;56356.31;;;-142.13;69.02
11712;BME280;5912;51.034;6.984;2023-04-01T12:00:02;56440.47;;;-142.13;68.19
11712;BME280;5912;51.034;6.984;2023-04-01T12:05:32;56412.41;;;-142.13;66.12
11712;BME280;5912;51.034;6.984;2023-04-01T12:08:29;56400.41;;;-142.13;65.94
11712;BME280;5912;51.034;6.984;2023-04-01T12:16:46;56382.38;;;-142.13;63.70
11712;BME280;5912;51.034;6.984;2023-04-01T12:19:29;56408.41;;;-142.13;64.50
11712;BME280;5912;51.034;6.984;2023-04-01T12:27:35;56398.41;;;-142.13;65.02
11712;BME280;5912;51.034;6.984;2023-04-01T12:30:42;56384.38;;;-142.13;64.06
11712;BME280;5912;51.034;6.984;2023-04-01T12:41:17;56408.41;;;-142.13;64.57
11712;BME280;5912;51.034;6.984;2023-04-01T12:44:08;56444.47;;;-142.13;63.72
11712;BME280;5912;51.034;6.984;2023-04-01T12:52:00;56432.44;;;-142.13;65.37
11712;BME280;5912;51.034;6.984;2023-04-01T12:54:44;56420.44;;;-142.13;65.74
11712;BME280;5912;51.034;6.984;2023-04-01T13:11:02;56444.47;;;-142.13;67.48
11712;BME280;5912;51.034;6.984;2023-04-01T13:13:40;56424.44;;;-142.13;67.51
11712;BME280;5912;51.034;6.984;2023-04-01T13:16:31;56436.47;;;-142.13;67.16
11712;BME280;5912;51.034;6.984;2023-04-01T13:22:17;56456.50;;;-142.13;69.17
11712;BME280;5912;51.034;6.984;2023-04-01T13:27:37;56446.47;;;-142.13;68.47
11712;BME280;5912;51.034;6.984;2023-04-01T13:35:31;56448.47;;;-142.13;69.90
11712;BME280;5912;51.034;6.984;2023-04-01T13:38:12;56448.47;;;-142.13;69.85
11712;BME280;5912;51.034;6.984;2023-04-01T13:44:17;56438.47;;;-142.13;70.93
11712;BME280;5912;51.034;6.984;2023-04-01T13:49:28;56446.47;;;-142.13;71.44
11712;BME280;5912;51.034;6.984;2023-04-01T13:52:20;56456.50;;;-142.13;72.05
11712;BME280;5912;51.034;6.984;2023-04-01T13:57:56;56466.50;;;-142.13;71.82
11712;BME280;5912;51.034;6.984;2023-04-01T14:00:31;56424.44;;;-142.13;71.72
11712;BME280;5912;51.034;6.984;2023-04-01T14:06:20;56416.44;;;-142.13;72.05
11712;BME280;5912;51.034;6.984;2023-04-01T14:14:04;56432.44;;;-142.13;71.07
11712;BME280;5912;51.034;6.984;2023-04-01T14:16:54;56448.47;;;-142.13;70.58
11712;BME280;5912;51.034;6.984;2023-04-01T14:22:28;56440.47;;;-142.13;71.41
11712;BME280;5912;51.034;6.984;2023-04-01T14:36:18;56456.50;;;-142.13;71.61
11712;BME280;5912;51.034;6.984;2023-04-01T14:49:36;56436.47;;;-142.13;72.66
11712;BME280;5912;51.034;6.984;2023-04-01T14:52:31;56436.47;;;-142.13;72.82
11712;BME280;5912;51.034;6.984;2023-04-01T14:54:57;56488.53;;;-142.13;72.91
11712;BME280;5912;51.034;6.984;2023-04-01T14:57:29;56460.50;;;-142.13;73.03
11712;BME280;5912;51.034;6.984;2023-04-01T15:02:57;56472.50;;;-142.13;73.46
11712;BME280;5912;51.034;6.984;2023-04-01T15:06:10;56468.50;;;-142.13;73.02
11712;BME280;5912;51.034;6.984;2023-04-01T15:08:32;56472.50;;;-142.13;73.22
11712;BME280;5912;51.034;6.984;2023-04-01T15:20:02;56450.47;;;-142.13;73.27
11712;BME280;5912;51.034;6.984;2023-04-01T15:22:57;56464.50;;;-142.13;73.42
11712;BME280;5912;51.034;6.984;2023-04-01T15:28:37;56472.50;;;-142.13;72.57
11712;BME280;5912;51.034;6.984;2023-04-01T15:31:16;56448.47;;;-142.13;72.90
11712;BME280;5912;51.034;6.984;2023-04-01T15:34:15;56476.53;;;-142.13;73.38
11712;BME280;5912;51.034;6.984;2023-04-01T15:37:01;56442.47;;;-142.13;73.14
11712;BME280;5912;51.034;6.984;2023-04-01T15:39:35;56470.50;;;-142.13;73.62
11712;BME280;5912;51.034;6.984;2023-04-01T16:00:49;56414.41;;;-142.13;70.38
11712;BME280;5912;51.034;6.984;2023-04-01T16:19:37;56436.47;;;-142.13;70.85
11712;BME280;5912;51.034;6.984;2023-04-01T16:22:20;56490.53;;;-142.13;71.54
11712;BME280;5912;51.034;6.984;2023-04-01T16:30:40;56460.50;;;-142.13;72.22
11712;BME280;5912;51.034;6.984;2023-04-01T16:33:21;56648.81;;;-142.13;72.75
11712;BME280;5912;51.034;6.984;2023-04-01T16:45:15;56470.50;;;-142.13;73.15
11712;BME280;5912;51.034;6.984;2023-04-01T16:47:51;56500.56;;;-142.13;73.83
11712;BME280;5912;51.034;6.984;2023-04-01T16:50:29;56460.50;;;-142.13;73.85
11712;BME280;5912;51.034;6.984;2023-04-01T16:55:55;56488.53;;;-142.13;74.20
11712;BME280;5912;51.034;6.984;2023-04-01T16:58:43;56514.59;;;-142.13;74.24
11712;BME280;5912;51.034;6.984;2023-04-01T17:01:20;56464.50;;;-142.13;74.78
11712;BME280;5912;51.034;6.984;2023-04-01T17:03:52;56486.53;;;-142.13;74.91
11712;BME280;5912;51.034;6.984;2023-04-01T17:06:31;56528.59;;;-142.13;75.16
11712;BME280;5912;51.034;6.984;2023-04-01T17:09:23;56522.59;;;-142.13;75.27
11712;BME280;5912;51.034;6.984;2023-04-01T17:12:03;56492.53;;;-142.13;75.52
11712;BME280;5912;51.034;6.984;2023-04-01T17:22:48;56506.56;;;-142.13;75.79
11712;BME280;5912;51.034;6.984;2023-04-01T17:31:07;56486.53;;;-142.13;76.42
11712;BME280;5912;51.034;6.984;2023-04-01T17:42:15;56516.59;;;-142.13;76.97
11712;BME280;5912;51.034;6.984;2023-04-01T17:45:00;56500.56;;;-142.13;77.06
11712;BME280;5912;51.034;6.984;2023-04-01T17:47:52;56490.53;;;-142.13;77.13
11712;BME280;5912;51.034;6.984;2023-04-01T17:53:11;56500.56;;;-142.13;77.42
11712;BME280;5912;51.034;6.984;2023-04-01T17:55:50;56512.59;;;-142.13;77.53
11712;BME280;5912;51.034;6.984;2023-04-01T18:11:53;56524.59;;;-142.13;77.68
11712;BME280;5912;51.034;6.984;2023-04-01T18:14:31;56534.63;;;-142.13;77.65
11712;BME280;5912;51.034;6.984;2023-04-01T18:17:21;56552.66;;;-142.13;78.06
11712;BME280;5912;51.034;6.984;2023-04-01T18:22:41;56538.63;;;-142.13;77.80
11712;BME280;5912;51.034;6.984;2023-04-01T18:25:33;56496.56;;;-142.13;77.68
11712;BME280;5912;51.034;6.984;2023-04-01T18:30:40;56518.59;;;-142.13;77.80
11712;BME280;5912;51.034;6.984;2023-04-01T18:33:19;56554.66;;;-142.13;77.63
11712;BME280;5912;51.034;6.984;2023-04-01T18:35:51;56522.59;;;-142.13;77.81
11712;BME280;5912;51.034;6.984;2023-04-01T18:38:44;56518.59;;;-142.13;77.95
11712;BME280;5912;51.034;6.984;2023-04-01T18:44:47;56528.59;;;-142.13;78.02
11712;BME280;5912;51.034;6.984;2023-04-01T18:50:13;56520.59;;;-142.13;78.01
11712;BME280;5912;51.034;6.984;2023-04-01T18:52:44;56526.59;;;-142.13;77.88
11712;BME280;5912;51.034;6.984;2023-04-01T18:57:58;56522.59;;;-142.13;77.90
11712;BME280;5912;51.034;6.984;2023-04-01T19:00:38;56564.66;;;-142.13;78.08
11712;BME280;5912;51.034;6.984;2023-04-01T19:03:26;56554.66;;;-142.13;77.94
11712;BME280;5912;51.034;6.984;2023-04-01T19:06:00;56536.63;;;-142.13;77.90
11712;BME280;5912;51.034;6.984;2023-04-01T19:08:34;56538.63;;;-142.13;77.77
11712;BME280;5912;51.034;6.984;2023-04-01T19:11:13;56532.63;;;-142.13;77.97
11712;BME280;5912;51.034;6.984;2023-04-01T19:21:58;56536.63;;;-142.13;78.04
11712;BME280;5912;51.034;6.984;2023-04-01T19:27:50;56508.56;;;-142.13;78.02
11712;BME280;5912;51.034;6.984;2023-04-01T19:32:53;56546.63;;;-142.13;78.19
11712;BME280;5912;51.034;6.984;2023-04-01T19:44:38;56492.53;;;-142.13;78.05
11712;BME280;5912;51.034;6.984;2023-04-01T19:50:14;56516.59;;;-142.13;78.18
11712;BME280;5912;51.034;6.984;2023-04-01T19:52:46;56516.59;;;-142.13;78.46
11712;BME280;5912;51.034;6.984;2023-04-01T19:58:00;56528.59;;;-142.13;78.32
11712;BME280;5912;51.034;6.984;2023-04-01T20:00:53;56534.63;;;-142.13;78.52
11712;BME280;5912;51.034;6.984;2023-04-01T20:03:34;56540.63;;;-142.13;78.20
11712;BME280;5912;51.034;6.984;2023-04-01T20:06:14;56528.59;;;-142.13;78.13
11712;BME280;5912;51.034;6.984;2023-04-01T20:08:54;56530.59;;;-142.13;78.30
11712;BME280;5912;51.034;6.984;2023-04-01T20:15:00;56530.59;;;-142.13;78.25
11712;BME280;5912;51.034;6.984;2023-04-01T20:17:43;56516.59;;;-142.13;78.69
11712;BME280;5912;51.034;6.984;2023-04-01T20:25:30;56514.59;;;-142.13;78.82
11712;BME280;5912;51.034;6.984;2023-04-01T20:28:43;56534.63;;;-142.13;78.95
11712;BME280;5912;51.034;6.984;2023-04-01T20:37:30;56564.66;;;-142.13;78.73
11712;BME280;5912;51.034;6.984;2023-04-01T20:40:26;56530.59;;;-142.13;79.17
11712;BME280;5912;51.034;6.984;2023-04-01T20:45:56;56560.66;;;-142.13;79.01
11712;BME280;5912;51.034;6.984;2023-04-01T20:48:48;56564.66;;;-142.13;78.80
11712;BME280;5912;51.034;6.984;2023-04-01T20:51:24;56528.59;;;-142.13;78.83
11712;BME280;5912;51.034;6.984;2023-04-01T21:10:41;56552.66;;;-142.13;79.11
11712;BME280;5912;51.034;6.984;2023-04-01T21:13:33;56534.63;;;-142.13;79.45
11712;BME280;5912;51.034;6.984;2023-04-01T21:16:31;56528.59;;;-142.13;79.48
11712;BME280;5912;51.034;6.984;2023-04-01T21:19:09;56530.59;;;-142.13;79.55
11712;BME280;5912;51.034;6.984;2023-04-01T21:44:20;56544.63;;;-142.13;79.25
11712;BME280;5912;51.034;6.984;2023-04-01T21:47:23;56530.59;;;-142.13;79.27
11712;BME280;5912;51.034;6.984;2023-04-01T21:53:32;56560.66;;;-142.13;79.40
11712;BME280;5912;51.034;6.984;2023-04-01T21:59:16;56576.69;;;-142.13;79.62
11712;BME280;5912;51.034;6.984;2023-04-01T22:07:38;56538.63;;;-142.13;79.59
11712;BME280;5912;51.034;6.984;2023-04-01T22:10:38;56536.63;;;-142.13;79.55
11712;BME280;5912;51.034;6.984;2023-04-01T22:13:27;56548.63;;;-142.13;79.59
11712;BME280;5912;51.034;6.984;2023-04-01T22:18:49;56560.66;;;-142.13;79.50
11712;BME280;5912;51.034;6.984;2023-04-01T22:40:23;56520.59;;;-142.13;79.90
11712;BME280;5912;51.034;6.984;2023-04-01T22:42:59;56536.63;;;-142.13;79.94
11712;BME280;5912;51.034;6.984;2023-04-01T22:45:52;56532.63;;;-142.13;80.00